Time;durP1;ratioP1;P1;durP2;ratioP2;P2;SDS_P1;SDS_P2;PMS_P1;PMS_P2;Temp;Humidity;BMP_temperature;BMP_pressure;BME280_temperature;BME280_humidity;BME280_pressure;Samples;Min_cycle;Max_cycle;Signal;HPM_P1;HPM_P2
2021/01/11 00:01:03;;;;;;;46.37;24.27;;;0.90;99.90;;;;;;1943018;29;20274;-89
2021/01/11 00:04:04;;;;;;;52.85;27.15;;;0.90;99.90;;;;;;1964415;29;20159;-90
2021/01/11 00:06:47;;;;;;;45.12;24.45;;;0.80;99.90;;;;;;1900931;30;20185;-87
2021/01/11 00:09:51;;;;;;;47.80;24.48;;;0.70;99.90;;;;;;1844092;30;20512;-91
2021/01/11 00:12:43;;;;;;;55.45;27.30;;;0.70;99.90;;;;;;1861057;29;20533;-91
2021/01/11 00:15:52;;;;;;;48.55;25.20;;;0.70;99.90;;;;;;1851816;29;20510;-91
2021/01/11 00:18:46;;;;;;;48.22;25.50;;;0.70;99.90;;;;;;1840041;30;20703;-90
2021/01/11 00:21:48;;;;;;;46.80;23.85;;;0.60;99.90;;;;;;1905179;29;20214;-90
2021/01/11 00:27:10;;;;;;;48.47;23.52;;;0.50;99.90;;;;;;1846221;29;20503;-90
2021/01/11 00:30:19;;;;;;;46.47;24.33;;;0.50;99.90;;;;;;1849394;29;20514;-90
2021/01/11 00:33:11;;;;;;;52.40;26.27;;;0.40;99.90;;;;;;1857422;29;20567;-90
2021/01/11 00:36:19;;;;;;;58.47;27.15;;;0.40;99.90;;;;;;1864147;29;20527;-90
2021/01/11 00:39:12;;;;;;;72.30;30.25;;;0.30;99.90;;;;;;1858118;29;20528;-89
2021/01/11 00:42:14;;;;;;;54.07;25.67;;;0.30;99.90;;;;;;1912162;29;20515;-89
2021/01/11 00:45:12;;;;;;;62.50;28.50;;;0.20;99.90;;;;;;1923381;29;20196;-90
2021/01/11 00:48:17;;;;;;;52.95;26.37;;;0.20;99.90;;;;;;1858623;29;20521;-89
2021/01/11 00:51:09;;;;;;;41.03;21.67;;;0.20;99.90;;;;;;1874425;29;21842;-90
2021/01/11 00:54:15;;;;;;;50.28;25.30;;;0.20;99.90;;;;;;1830828;29;20471;31
2021/01/11 00:57:10;;;;;;;50.60;25.05;;;0.10;99.90;;;;;;1913323;30;20166;-90
2021/01/11 01:00:16;;;;;;;55.85;26.73;;;0.10;99.90;;;;;;1106960;29;21800;-90
2021/01/11 01:03:19;;;;;;;37.75;18.83;;;0.10;99.90;;;;;;1837159;29;20440;31
2021/01/11 01:06:24;;;;;;;64.50;30.00;;;0.10;99.90;;;;;;1835966;29;20509;-89
2021/01/11 01:09:10;;;;;;;53.60;28.20;;;0.00;99.90;;;;;;720858;29;20636;-89
2021/01/11 01:12:14;;;;;;;56.37;28.58;;;0.00;99.90;;;;;;1835767;29;20440;31
2021/01/11 01:15:11;;;;;;;52.53;28.95;;;0.00;99.90;;;;;;900689;29;20475;-91
2021/01/11 01:18:12;;;;;;;69.27;32.50;;;0.00;99.90;;;;;;1977239;29;20116;-89
2021/01/11 01:20:57;;;;;;;74.95;32.13;;;0.00;99.90;;;;;;2051173;30;20437;-89
2021/01/11 01:23:58;;;;;;;70.45;33.10;;;-0.10;99.90;;;;;;1834032;29;20430;31
2021/01/11 01:32:02;;;;;;;57.65;28.48;;;-0.20;99.90;;;;;;1453606;30;20498;-89
2021/01/11 01:35:05;;;;;;;71.57;31.62;;;-0.20;99.90;;;;;;832378;30;21867;-90
2021/01/11 01:45:17;;;;;;;77.32;33.90;;;-0.20;99.90;;;;;;801085;30;20430;-91
2021/01/11 02:09:53;;;;;;;63.45;30.23;;;-0.40;99.90;;;;;;1906961;29;20130;-91
2021/01/11 02:13:04;;;;;;;67.43;30.75;;;-0.50;99.90;;;;;;1969259;29;20123;-89
2021/01/11 02:16:29;;;;;;;56.95;26.20;;;-0.50;99.90;;;;;;1866909;29;20515;-89
2021/01/11 02:19:59;;;;;;;56.55;27.45;;;-0.50;99.90;;;;;;1981678;29;21133;-91
2021/01/11 02:23:13;;;;;;;58.35;27.65;;;-0.50;99.90;;;;;;1872997;29;20501;-89
2021/01/11 02:26:26;;;;;;;47.33;23.52;;;-0.50;99.90;;;;;;1934924;29;20180;-92
2021/01/11 02:29:18;;;;;;;53.43;26.90;;;-0.50;99.90;;;;;;1923847;29;20379;-91
2021/01/11 02:32:17;;;;;;;58.23;30.23;;;-0.60;99.90;;;;;;1926185;29;20185;-91
2021/01/11 02:35:05;;;;;;;59.35;30.17;;;-0.60;99.90;;;;;;1870099;29;20654;-92
2021/01/11 02:38:08;;;;;;;70.70;32.72;;;-0.60;99.90;;;;;;1905899;29;20193;-92
2021/01/11 02:40:57;;;;;;;65.25;28.90;;;-0.70;99.90;;;;;;1844708;29;21760;-90
2021/01/11 02:44:03;;;;;;;68.60;31.70;;;-0.70;99.90;;;;;;1846924;29;20541;-91
2021/01/11 02:46:57;;;;;;;72.97;32.65;;;-0.70;99.90;;;;;;1752210;30;20126;-91
2021/01/11 02:49:58;;;;;;;66.80;29.80;;;-0.80;99.90;;;;;;1914872;30;20189;-91
2021/01/11 02:53:27;;;;;;;54.85;27.30;;;-0.80;99.90;;;;;;1838084;29;20544;-89
2021/01/11 02:56:54;;;;;;;62.88;29.75;;;-0.80;99.90;;;;;;1839868;29;20517;-88
2021/01/11 02:59:58;;;;;;;47.10;20.62;;;-0.80;99.90;;;;;;1867329;29;20525;-89
2021/01/11 03:03:00;;;;;;;58.87;28.50;;;-0.80;99.90;;;;;;1922699;29;20538;-91
2021/01/11 03:05:53;;;;;;;58.92;27.00;;;-0.90;99.90;;;;;;1922717;29;20193;-87
2021/01/11 03:09:06;;;;;;;43.33;21.17;;;-0.90;99.90;;;;;;1896797;29;20500;-91
2021/01/11 03:11:59;;;;;;;57.83;28.38;;;-0.90;99.90;;;;;;1857947;29;20442;31
2021/01/11 03:15:08;;;;;;;47.70;23.23;;;-1.00;99.90;;;;;;1326322;29;20417;-88
2021/01/11 03:21:42;;;;;;;47.28;22.08;;;-1.00;99.90;;;;;;695225;29;21904;-89
2021/01/11 03:27:59;;;;;;;64.87;30.08;;;-1.00;99.90;;;;;;664417;29;21862;-88
2021/01/11 03:45:16;;;;;;;64.10;29.65;;;-1.20;99.90;;;;;;661449;29;21896;-88
2021/01/11 04:15:36;;;;;;;58.78;27.13;;;-1.50;99.90;;;;;;656715;30;21837;-88
2021/01/11 04:18:34;;;;;;;67.43;31.48;;;-1.50;99.90;;;;;;659055;30;21943;-90
2021/01/11 04:32:08;;;;;;;50.85;25.77;;;-1.60;99.90;;;;;;662512;29;21928;-87
2021/01/11 04:41:58;;;;;;;67.37;32.13;;;-1.70;99.90;;;;;;783066;30;21970;-87
2021/01/11 04:44:46;;;;;;;70.57;31.15;;;-1.70;99.90;;;;;;655073;29;21802;-88
2021/01/11 04:51:16;;;;;;;53.40;26.87;;;-1.80;99.90;;;;;;655328;30;21861;-88
2021/01/11 05:15:44;;;;;;;68.47;30.10;;;-2.00;99.90;;;;;;660672;29;21949;-87
2021/01/11 05:50:32;;;;;;;67.93;30.33;;;-2.30;99.90;;;;;;662554;29;21836;-87
2021/01/11 06:40:00;;;;;;;74.65;32.13;;;-2.60;99.90;;;;;;668126;29;21892;-89
2021/01/11 07:54:09;;;;;;;41.35;22.10;;;1.90;99.90;;;;;;724416;29;20506;-88
2021/01/11 08:29:28;;;;;;;46.20;23.83;;;6.10;99.90;;;;;;756883;29;20405;-92
2021/01/11 08:38:28;;;;;;;46.40;25.88;;;6.50;99.90;;;;;;1918043;29;20236;-92
2021/01/11 08:41:31;;;;;;;47.22;25.50;;;6.70;99.90;;;;;;1985330;29;20239;-91
2021/01/11 08:44:37;;;;;;;47.70;26.40;;;6.70;99.90;;;;;;1676164;29;21905;-90
2021/01/11 08:47:38;;;;;;;46.08;25.35;;;6.70;99.90;;;;;;1331524;29;20402;-90
2021/01/11 08:50:21;;;;;;;45.80;26.02;;;6.60;99.90;;;;;;728552;29;20432;-90
2021/01/11 09:00:38;;;;;;;45.00;24.75;;;6.30;99.90;;;;;;723123;29;20449;-90
2021/01/11 09:07:30;;;;;;;42.38;24.17;;;6.60;99.90;;;;;;1855420;29;20517;-90
2021/01/11 09:10:22;;;;;;;39.72;23.10;;;6.80;99.90;;;;;;1903205;29;20516;-91
2021/01/11 09:13:29;;;;;;;43.17;22.73;;;6.80;99.90;;;;;;1997371;29;20388;-91
2021/01/11 09:16:24;;;;;;;38.55;22.90;;;6.90;99.90;;;;;;1882770;29;20510;-91
2021/01/11 09:19:31;;;;;;;44.85;24.67;;;7.00;99.90;;;;;;1943621;29;20179;-90
2021/01/11 09:22:30;;;;;;;44.42;26.52;;;7.10;99.90;;;;;;1908728;29;20186;-91
2021/01/11 09:25:36;;;;;;;48.63;25.40;;;7.00;99.90;;;;;;1852581;29;20576;-94
2021/01/11 09:28:45;;;;;;;44.53;25.70;;;6.90;99.90;;;;;;1861090;29;20524;-94
2021/01/11 09:31:48;;;;;;;43.85;24.87;;;6.80;99.90;;;;;;1957249;29;20153;-93
2021/01/11 09:34:56;;;;;;;47.00;25.62;;;7.00;99.90;;;;;;1865917;29;21598;-94
2021/01/11 09:38:05;;;;;;;49.28;27.62;;;6.80;99.90;;;;;;1983810;29;20142;-94
2021/01/11 09:40:53;;;;;;;42.58;26.23;;;6.80;99.90;;;;;;2101752;29;20428;-94
2021/01/11 09:43:43;;;;;;;45.53;27.20;;;6.90;99.90;;;;;;2077358;30;20166;-95
2021/01/11 09:46:57;;;;;;;53.55;27.77;;;6.90;99.90;;;;;;1930966;29;20201;-93
2021/01/11 09:49:46;;;;;;;44.25;27.17;;;6.70;99.90;;;;;;1954741;29;21404;-94
2021/01/11 09:52:55;;;;;;;44.47;26.65;;;6.70;99.90;;;;;;2034485;30;20450;-94
2021/01/11 09:56:06;;;;;;;42.92;24.12;;;6.60;99.90;;;;;;1918503;29;20190;-95
2021/01/11 09:59:18;;;;;;;46.90;26.58;;;6.70;99.90;;;;;;1901400;30;20206;-95
2021/01/11 10:02:10;;;;;;;39.78;22.52;;;6.80;99.90;;;;;;2091333;29;20190;-92
2021/01/11 10:05:16;;;;;;;35.22;19.98;;;6.60;99.90;;;;;;1995049;30;20441;-93
2021/01/11 10:08:26;;;;;;;31.80;18.98;;;6.70;99.90;;;;;;1546525;30;20434;-89
2021/01/11 10:25:07;;;;;;;31.05;16.27;;;6.50;99.90;;;;;;691747;29;22430;-91
2021/01/11 10:37:50;;;;;;;24.23;15.52;;;6.40;99.90;;;;;;2057249;29;20461;-91
2021/01/11 10:40:56;;;;;;;25.42;14.95;;;6.40;99.90;;;;;;1891450;29;20584;-92
2021/01/11 10:44:14;;;;;;;25.58;14.18;;;6.30;99.90;;;;;;1869734;29;20524;-91
2021/01/11 10:47:06;;;;;;;23.42;13.70;;;6.20;99.90;;;;;;1864819;29;20489;-91
2021/01/11 10:50:09;;;;;;;27.42;14.98;;;6.10;99.90;;;;;;1783964;29;20176;-91
2021/01/11 10:53:01;;;;;;;22.80;12.55;;;5.90;99.90;;;;;;1879954;29;20556;-91
2021/01/11 10:56:02;;;;;;;26.25;13.75;;;5.80;99.90;;;;;;1945935;29;20185;-91
2021/01/11 10:58:49;;;;;;;19.52;11.60;;;5.70;99.90;;;;;;1939365;29;20183;-92
2021/01/11 11:01:55;;;;;;;20.80;12.40;;;5.60;99.90;;;;;;1873053;29;20573;-94
2021/01/11 11:04:48;;;;;;;21.25;12.75;;;5.50;99.90;;;;;;1906489;29;20129;-89
2021/01/11 11:07:58;;;;;;;23.67;13.52;;;5.40;99.90;;;;;;1880250;29;20592;-93
2021/01/11 11:10:57;;;;;;;22.13;12.18;;;5.30;99.90;;;;;;2075668;29;20176;-91
2021/01/11 11:14:18;;;;;;;19.98;10.95;;;5.20;99.90;;;;;;1951131;29;20164;-93
2021/01/11 11:25:11;;;;;;;17.02;9.85;;;4.70;99.90;;;;;;1992931;29;21015;-91
2021/01/11 11:28:22;;;;;;;16.98;10.38;;;4.60;99.90;;;;;;2141533;29;21447;-92
2021/01/11 11:31:42;;;;;;;19.25;9.52;;;4.50;99.90;;;;;;2033621;29;20452;-93
2021/01/11 11:34:44;;;;;;;19.83;10.20;;;4.30;99.90;;;;;;1995024;29;21085;-92
2021/01/11 11:38:00;;;;;;;20.15;9.90;;;4.20;99.90;;;;;;1887862;29;20489;-92
2021/01/11 11:41:11;;;;;;;20.98;9.48;;;4.00;99.90;;;;;;1850457;29;20442;31
2021/01/11 11:44:05;;;;;;;17.58;9.98;;;4.00;99.90;;;;;;1892258;30;20137;-93
2021/01/11 11:47:20;;;;;;;16.30;9.00;;;3.80;99.90;;;;;;1858753;30;20523;-93
2021/01/11 11:50:14;;;;;;;19.40;10.07;;;3.80;99.90;;;;;;1860718;29;20530;-92
2021/01/11 11:53:22;;;;;;;20.30;10.55;;;3.70;99.90;;;;;;1846701;29;20523;-91
2021/01/11 11:56:13;;;;;;;19.40;10.88;;;3.60;99.90;;;;;;2027133;30;20422;-91
2021/01/11 11:59:14;;;;;;;21.73;10.77;;;3.60;99.90;;;;;;2018696;30;20469;-91
2021/01/11 12:02:05;;;;;;;21.20;11.80;;;3.50;99.90;;;;;;1876208;30;20513;-92
2021/01/11 12:05:12;;;;;;;23.58;13.05;;;3.40;99.90;;;;;;1916345;29;20763;-91
2021/01/11 12:07:58;;;;;;;23.83;13.52;;;3.30;99.90;;;;;;1902145;29;20216;-91
2021/01/11 12:11:25;;;;;;;22.20;12.18;;;3.30;99.90;;;;;;1857074;29;20507;-90
2021/01/11 12:14:35;;;;;;;25.58;11.60;;;3.30;99.90;;;;;;1855664;29;20493;-89
2021/01/11 12:17:44;;;;;;;21.65;10.05;;;3.20;99.90;;;;;;1848420;29;20527;-89
2021/01/11 12:20:36;;;;;;;19.02;10.35;;;3.10;99.90;;;;;;1843794;29;21789;-89
2021/01/11 12:23:40;;;;;;;22.85;10.73;;;3.10;99.90;;;;;;1946905;29;20141;-90
2021/01/11 12:26:39;;;;;;;19.15;9.50;;;3.00;99.90;;;;;;1852164;29;20499;-92
2021/01/11 12:29:41;;;;;;;23.27;11.35;;;2.90;99.90;;;;;;1910374;29;20201;-92
2021/01/11 12:32:24;;;;;;;20.23;10.65;;;2.90;99.90;;;;;;1848286;29;20571;-92
2021/01/11 12:35:32;;;;;;;20.30;11.18;;;2.80;99.90;;;;;;1847585;29;20526;-92
2021/01/11 12:38:23;;;;;;;20.67;11.20;;;2.80;99.90;;;;;;1848938;29;20395;31
2021/01/11 12:41:48;;;;;;;28.23;13.00;;;2.70;99.90;;;;;;961416;29;20501;-90
2021/01/11 12:44:34;;;;;;;22.67;12.63;;;2.70;99.90;;;;;;1917754;29;20255;-92
2021/01/11 12:47:40;;;;;;;20.35;11.23;;;2.60;99.90;;;;;;2039503;30;20888;-91
2021/01/11 12:53:02;;;;;;;18.25;9.45;;;2.50;99.90;;;;;;1848399;30;20630;-90
2021/01/11 12:56:18;;;;;;;20.30;10.20;;;2.50;99.90;;;;;;1844924;29;21994;-90
2021/01/11 12:59:10;;;;;;;18.00;9.90;;;2.50;99.90;;;;;;1866603;29;20530;-92
2021/01/11 13:02:18;;;;;;;;;;;2.40;99.90;;;;;;1874029;29;20505;-90
2021/01/11 13:05:07;;;;;;;18.20;8.73;;;2.40;99.90;;;;;;1935533;29;20052;-90
2021/01/11 13:08:09;;;;;;;17.87;10.93;;;2.30;99.90;;;;;;1983731;29;20190;-95
2021/01/11 13:11:17;;;;;;;18.70;10.03;;;2.30;99.90;;;;;;2005893;29;20567;-95
2021/01/11 13:14:19;;;;;;;22.08;9.70;;;2.20;99.90;;;;;;1960757;29;21087;-90
2021/01/11 13:17:01;;;;;;;20.77;10.73;;;2.20;99.90;;;;;;1896508;29;20378;-91
2021/01/11 13:20:05;;;;;;;20.83;11.27;;;2.10;99.90;;;;;;1932623;29;20173;-95
2021/01/11 13:22:49;;;;;;;22.25;11.63;;;2.10;99.90;;;;;;1915113;29;20129;-91
2021/01/11 13:25:57;;;;;;;20.92;10.98;;;2.10;99.90;;;;;;1840995;30;21884;-90
2021/01/11 13:28:52;;;;;;;23.30;12.48;;;2.10;99.90;;;;;;1841585;30;22317;-93
2021/01/11 13:31:55;;;;;;;19.60;11.68;;;2.10;99.90;;;;;;1896951;30;20194;-93
2021/01/11 13:35:01;;;;;;;23.02;11.40;;;2.00;99.90;;;;;;1836343;30;20513;-90
2021/01/11 13:38:17;;;;;;;20.27;11.12;;;1.90;99.90;;;;;;834409;30;20499;-93
2021/01/11 13:41:00;;;;;;;20.10;11.15;;;1.90;99.90;;;;;;1905337;30;20243;-94
2021/01/11 13:44:11;;;;;;;19.83;10.50;;;1.90;99.90;;;;;;1854533;30;20141;-90
2021/01/11 13:46:59;;;;;;;20.20;11.52;;;1.80;99.90;;;;;;1923859;30;20186;-88
2021/01/11 13:49:57;;;;;;;20.27;11.50;;;1.70;99.90;;;;;;1894157;30;20186;-94
2021/01/11 13:52:46;;;;;;;18.30;10.05;;;1.70;99.90;;;;;;1961719;30;20147;-95
2021/01/11 13:55:44;;;;;;;19.73;10.88;;;1.70;99.90;;;;;;2000361;30;20151;-96
2021/01/11 13:58:27;;;;;;;17.23;10.20;;;1.70;99.90;;;;;;1915680;30;20190;-94
2021/01/11 14:01:40;;;;;;;19.23;10.57;;;1.60;99.90;;;;;;1963282;30;20148;-95
2021/01/11 14:04:52;;;;;;;17.77;9.52;;;1.60;99.90;;;;;;1747084;30;20119;-93
2021/01/11 14:07:47;;;;;;;20.23;10.98;;;1.60;99.90;;;;;;1849373;30;21244;-91
2021/01/11 14:10:51;;;;;;;21.48;10.40;;;1.50;99.90;;;;;;1901475;30;20509;-91
2021/01/11 14:14:00;;;;;;;20.70;11.77;;;1.50;99.90;;;;;;960693;30;20483;-89
2021/01/11 14:24:08;;;;;;;19.75;11.05;;;1.50;99.90;;;;;;810187;29;20474;-90
2021/01/11 14:31:01;;;;;;;22.70;10.85;;;1.40;99.90;;;;;;722041;29;21836;-90
2021/01/11 14:44:38;;;;;;;23.42;13.13;;;1.30;99.90;;;;;;1914165;29;20251;-89
2021/01/11 14:47:25;;;;;;;24.45;12.85;;;1.20;99.90;;;;;;1926571;29;20235;-87
2021/01/11 14:50:41;;;;;;;25.45;13.05;;;1.20;99.90;;;;;;1875934;29;21945;-88
2021/01/11 14:53:52;;;;;;;24.70;13.20;;;1.10;99.90;;;;;;1871838;29;20644;-87
2021/01/11 14:57:02;;;;;;;23.48;12.35;;;1.10;99.90;;;;;;1869772;29;20522;-87
2021/01/11 14:59:54;;;;;;;23.20;12.55;;;1.10;99.90;;;;;;1865389;29;20513;-88
2021/01/11 15:02:55;;;;;;;30.90;16.20;;;1.10;99.90;;;;;;1365232;29;20391;-88
2021/01/11 15:05:44;;;;;;;26.48;14.23;;;1.00;99.90;;;;;;1846611;29;20411;31
2021/01/11 15:08:55;;;;;;;28.65;14.55;;;0.90;99.90;;;;;;1875799;29;20508;-88
2021/01/11 15:12:18;;;;;;;24.60;12.80;;;0.80;99.90;;;;;;2028976;29;20529;-88
2021/01/11 15:15:34;;;;;;;26.40;13.02;;;0.70;99.90;;;;;;1866364;29;20525;-92
2021/01/11 15:18:28;;;;;;;28.15;14.30;;;0.70;99.90;;;;;;1850524;29;21153;-89
2021/01/11 15:21:37;;;;;;;26.23;13.70;;;0.60;99.90;;;;;;1864552;29;20509;-88
2021/01/11 15:24:31;;;;;;;26.67;14.40;;;0.60;99.90;;;;;;1864301;29;21758;-89
2021/01/11 15:27:40;;;;;;;28.27;13.20;;;0.60;99.90;;;;;;1978691;29;20182;-89
2021/01/11 15:30:39;;;;;;;24.55;12.25;;;0.60;99.90;;;;;;1864912;29;20457;31
2021/01/11 15:33:39;;;;;;;32.22;14.40;;;0.60;99.90;;;;;;1905490;29;20193;-89
2021/01/11 15:36:30;;;;;;;25.37;14.55;;;0.60;99.90;;;;;;1918091;29;20174;-88
2021/01/11 15:39:31;;;;;;;27.03;12.23;;;0.60;99.90;;;;;;720781;29;20443;-89
2021/01/11 15:49:31;;;;;;;28.70;14.65;;;0.60;99.90;;;;;;1856928;29;20508;31
2021/01/11 15:52:16;;;;;;;31.73;15.18;;;0.60;99.90;;;;;;698066;29;20437;-91
2021/01/11 15:55:21;;;;;;;30.37;15.43;;;0.50;99.90;;;;;;1265188;29;20396;-90
2021/01/11 15:58:39;;;;;;;32.58;14.77;;;0.50;99.90;;;;;;1027825;29;20417;-92
2021/01/11 16:02:00;;;;;;;30.27;16.12;;;0.50;99.90;;;;;;943967;29;20572;-91
2021/01/11 16:05:09;;;;;;;30.73;16.17;;;0.50;99.90;;;;;;809582;29;20493;-88
2021/01/11 16:10:44;;;;;;;58.30;24.55;;;0.60;99.90;;;;;;2065089;29;20485;-91
2021/01/11 16:14:15;;;;;;;44.58;19.30;;;0.60;99.90;;;;;;932811;29;20501;-91
2021/01/11 16:25:09;;;;;;;43.30;21.00;;;0.60;99.90;;;;;;1837525;29;23382;-89
2021/01/11 16:30:37;;;;;;;53.13;24.17;;;0.50;99.90;;;;;;1909572;29;20128;-88
2021/01/11 16:33:49;;;;;;;49.60;23.02;;;0.50;99.90;;;;;;2097048;29;20465;31
2021/01/11 16:39:11;;;;;;;40.12;19.00;;;0.40;99.90;;;;;;2124729;29;20209;31
2021/01/11 16:44:57;;;;;;;41.15;21.08;;;0.40;99.90;;;;;;2109147;29;21910;-92
2021/01/11 16:48:01;;;;;;;38.53;19.45;;;0.40;99.90;;;;;;2009725;29;20217;-91
2021/01/11 16:50:54;;;;;;;45.17;21.10;;;0.30;99.90;;;;;;1901850;29;20422;31
2021/01/11 16:54:10;;;;;;;38.72;19.40;;;0.30;99.90;;;;;;2121731;28;20895;-91
2021/01/11 16:57:01;;;;;;;40.40;19.95;;;0.20;99.90;;;;;;1889390;28;20542;-91
2021/01/11 17:03:40;;;;;;;38.40;18.75;;;0.20;99.90;;;;;;1438813;29;20331;-90
2021/01/11 17:10:09;;;;;;;40.12;18.05;;;0.00;99.90;;;;;;1608373;29;20473;-91
2021/01/11 17:20:17;;;;;;;38.28;18.17;;;-0.10;99.90;;;;;;1954657;29;20285;-89
2021/01/11 17:23:14;;;;;;;35.67;18.33;;;-0.20;99.90;;;;;;1878580;29;20512;-89
2021/01/11 17:26:28;;;;;;;37.17;17.83;;;-0.20;99.90;;;;;;1916501;29;20156;-89
2021/01/11 17:45:46;;;;;;;55.42;24.92;;;-0.40;99.90;;;;;;663895;29;21795;-89
2021/01/11 17:52:42;;;;;;;44.17;21.35;;;-0.50;99.90;;;;;;1665336;29;20437;-89
2021/01/11 17:55:49;;;;;;;42.85;21.48;;;-0.40;99.90;;;;;;906846;29;21848;-88
2021/01/11 17:59:10;;;;;;;45.08;20.77;;;-0.50;99.90;;;;;;958916;29;20438;-87
2021/01/11 18:34:54;;;;;;;36.35;18.98;;;-0.80;99.90;;;;;;664683;29;22023;-90
2021/01/11 20:00:22;;;;;;;66.97;33.05;;;-1.10;99.90;;;;;;1207432;29;21940;-94
2021/01/11 20:03:26;;;;;;;61.55;30.67;;;-1.10;99.90;;;;;;725367;29;20420;-93
2021/01/11 20:07:02;;;;;;;64.43;32.30;;;-1.20;99.90;;;;;;1056730;29;20412;-92
2021/01/11 20:10:09;;;;;;;58.65;29.90;;;-1.20;99.90;;;;;;1715564;29;21972;-94
2021/01/11 20:13:02;;;;;;;54.45;28.55;;;-1.20;99.90;;;;;;727705;29;21861;-93
2021/01/11 20:19:38;;;;;;;140.62;53.00;;;-1.20;99.90;;;;;;1331754;29;20405;-93
2021/01/11 20:23:07;;;;;;;279.20;95.05;;;-1.10;99.90;;;;;;999634;29;20467;-94
2021/01/11 20:25:55;;;;;;;470.23;159.70;;;-1.20;99.90;;;;;;934132;29;21875;-93
2021/01/11 20:32:40;;;;;;;86.68;35.35;;;-1.20;99.90;;;;;;1414790;29;20477;-94
2021/01/11 20:35:46;;;;;;;67.10;28.92;;;-1.20;99.90;;;;;;1148946;29;21978;-94
2021/01/11 20:42:40;;;;;;;46.75;22.50;;;-1.20;99.90;;;;;;838896;29;20429;-90
2021/01/11 21:46:01;;;;;;;41.45;19.45;;;-0.80;99.90;;;;;;670394;29;21902;-91
2021/01/11 21:48:57;;;;;;;42.33;20.48;;;-0.80;99.90;;;;;;763143;29;20392;-91
2021/01/11 21:55:37;;;;;;;38.33;18.77;;;-0.80;99.90;;;;;;849802;29;20420;-92
2021/01/11 21:58:49;;;;;;;62.28;27.55;;;-0.80;99.90;;;;;;1517501;29;20440;-91
2021/01/11 22:09:23;;;;;;;59.30;27.23;;;-0.80;99.90;;;;;;933176;29;20437;-91
2021/01/11 22:14:53;;;;;;;46.03;21.73;;;-0.90;99.90;;;;;;724487;29;20410;-89
2021/01/11 22:21:24;;;;;;;40.92;20.98;;;-0.90;99.90;;;;;;1849890;29;20545;31
2021/01/11 22:24:27;;;;;;;42.53;22.20;;;-0.90;99.90;;;;;;1390866;29;20395;-88
2021/01/11 22:30:59;;;;;;;39.25;19.75;;;-0.90;99.90;;;;;;1880422;29;21874;-92
2021/01/11 22:34:22;;;;;;;51.17;22.52;;;-0.80;99.90;;;;;;1078963;29;20415;-89
2021/01/11 22:37:44;;;;;;;46.63;20.62;;;-0.80;99.90;;;;;;1564607;29;20630;-88
2021/01/11 22:48:03;;;;;;;43.08;19.77;;;-0.70;99.90;;;;;;1523694;29;20498;-88
2021/01/11 23:09:11;;;;;;;40.90;19.27;;;-0.70;99.90;;;;;;903592;29;20376;-88
2021/01/11 23:12:15;;;;;;;44.13;20.45;;;-0.60;99.90;;;;;;1875932;29;20506;-91
2021/01/11 23:15:27;;;;;;;37.08;17.35;;;-0.60;99.90;;;;;;1547836;29;20433;-88
2021/01/11 23:29:04;;;;;;;45.42;19.35;;;-0.60;99.90;;;;;;1295160;29;20400;-90
2021/01/11 23:32:07;;;;;;;37.97;17.20;;;-0.60;99.90;;;;;;659242;29;21898;-90
2021/01/11 23:56:31;;;;;;;38.25;17.37;;;-0.60;99.90;;;;;;664646;29;21947;-90
2021/01/11 23:59:28;;;;;;;36.80;17.73;;;-0.50;99.90;;;;;;666025;29;22030;-90
